Time;durP1;ratioP1;P1;durP2;ratioP2;P2;SDS_P1;SDS_P2;PMS_P1;PMS_P2;Temp;Humidity;BMP_temperature;BMP_pressure;BME280_temperature;BME280_humidity;BME280_pressure;Samples;Min_cycle;Max_cycle;Signal;HPM_P1;HPM_P2
2022/11/30 00:01:12;;;;;;;30.60;21.73;;;8.70;86.70;;;11.48;61.48;102117.03;5072896;28;20221;-58
2022/11/30 00:03:40;;;;;;;29.80;20.80;;;8.60;86.60;;;11.49;61.60;102123.16;5073752;28;20606;-57
2022/11/30 00:06:10;;;;;;;30.67;21.37;;;8.70;87.00;;;11.50;62.12;102119.53;5073051;28;20242;-57
2022/11/30 00:08:38;;;;;;;28.83;20.27;;;8.60;87.10;;;11.51;61.80;102127.31;5073677;28;20181;-57
2022/11/30 00:11:13;;;;;;;32.57;22.23;;;8.60;87.20;;;11.52;61.66;102128.13;5072670;28;20575;-57
2022/11/30 00:13:40;;;;;;;29.03;20.70;;;8.70;87.60;;;11.56;61.85;102119.78;5076093;28;20727;-57
2022/11/30 00:16:08;;;;;;;35.20;22.93;;;8.60;87.60;;;11.58;61.90;102122.25;5073215;28;20662;-57
2022/11/30 00:18:36;;;;;;;31.00;21.30;;;8.70;87.30;;;11.57;61.49;102126.72;5073311;28;20282;-56
2022/11/30 00:21:07;;;;;;;33.37;22.67;;;8.60;87.10;;;11.57;61.37;102126.72;5072875;28;20219;-62
2022/11/30 00:23:38;;;;;;;32.53;21.67;;;8.60;87.10;;;11.58;61.56;102127.53;5073591;28;20195;-55
2022/11/30 00:26:09;;;;;;;31.13;21.03;;;8.60;87.10;;;11.58;61.40;102127.53;5073275;28;20551;-56
2022/11/30 00:28:38;;;;;;;30.50;20.40;;;8.70;87.00;;;11.57;61.55;102125.88;5073320;28;20253;-56
2022/11/30 00:31:09;;;;;;;28.70;20.27;;;8.70;86.90;;;11.55;61.40;102131.28;5073067;28;20193;-59
2022/11/30 00:33:38;;;;;;;32.97;22.67;;;8.70;86.90;;;11.57;61.57;102131.16;5072892;28;20212;-55
2022/11/30 00:36:09;;;;;;;31.17;21.43;;;8.70;87.10;;;11.59;61.90;102134.47;5073095;28;20242;-57
2022/11/30 00:38:36;;;;;;;31.50;20.47;;;8.70;87.20;;;11.59;61.75;102139.75;5085526;28;20222;-56
2022/11/30 00:41:04;;;;;;;29.93;21.83;;;8.70;87.10;;;11.61;61.38;102142.22;5092915;28;20749;-56
2022/11/30 00:43:31;;;;;;;30.67;21.87;;;8.70;87.80;;;11.60;61.75;102141.41;5093380;28;20594;-57
2022/11/30 00:46:00;;;;;;;30.23;20.10;;;8.70;87.00;;;11.61;61.77;102143.06;5092947;28;20191;-58
2022/11/30 00:48:27;;;;;;;29.27;20.77;;;8.70;87.00;;;11.63;61.64;102140.28;5077992;28;20678;-57
2022/11/30 00:50:54;;;;;;;30.67;20.97;;;8.70;87.00;;;11.66;61.23;102135.56;5072241;28;20670;-56
2022/11/30 00:53:21;;;;;;;30.00;19.90;;;8.70;86.90;;;11.67;61.73;102137.19;5072858;28;20610;-56
2022/11/30 00:55:49;;;;;;;31.27;21.37;;;8.70;87.80;;;11.68;61.31;102138.91;5072738;28;20569;-57
2022/11/30 00:58:16;;;;;;;31.63;20.67;;;8.70;86.70;;;11.64;60.99;102129.59;5072804;28;20669;-58
2022/11/30 01:00:43;;;;;;;30.13;20.67;;;8.70;86.30;;;11.57;60.97;102131.16;5071439;28;20250;-57
2022/11/30 01:03:12;;;;;;;29.53;20.77;;;8.70;86.00;;;11.52;61.49;102133.41;5072433;28;20519;-57
2022/11/30 01:05:42;;;;;;;32.23;21.20;;;8.70;86.20;;;11.50;61.25;102130.09;5072708;28;20262;-57
2022/11/30 01:08:11;;;;;;;34.20;21.47;;;8.70;86.20;;;11.48;60.98;102132.84;5074721;28;20220;-56
2022/11/30 01:10:41;;;;;;;32.53;21.77;;;8.60;86.20;;;11.46;61.17;102139.25;5076053;28;20190;-57
2022/11/30 01:13:10;;;;;;;27.50;19.03;;;8.60;86.40;;;11.47;61.30;102135.66;5075652;28;20625;-57
2022/11/30 01:15:40;;;;;;;31.63;21.60;;;8.60;86.50;;;11.47;61.29;102130.38;5075991;28;20197;-58
2022/11/30 01:18:07;;;;;;;30.80;21.80;;;8.60;86.50;;;11.47;61.12;102140.91;5075894;28;20717;-56
2022/11/30 01:20:40;;;;;;;30.50;21.30;;;8.60;87.10;;;11.43;61.11;102140.38;5058378;28;20201;-55
2022/11/30 01:23:07;;;;;;;33.03;21.47;;;8.60;86.20;;;11.44;61.30;102141.19;5055930;28;20643;-57
2022/11/30 01:25:34;;;;;;;32.93;22.47;;;8.60;86.50;;;11.43;61.53;102140.38;5056278;28;20625;-58
2022/11/30 01:28:01;;;;;;;35.50;22.80;;;8.60;86.60;;;11.44;61.24;102141.19;5055827;28;20585;-58
2022/11/30 01:30:28;;;;;;;36.40;23.17;;;8.50;86.30;;;11.43;60.86;102139.56;5055589;28;20216;-57
2022/11/30 01:33:00;;;;;;;39.67;23.67;;;8.50;86.40;;;11.41;61.29;102141.53;5056067;28;20627;-56
2022/11/30 01:35:26;;;;;;;38.63;23.03;;;8.50;86.50;;;11.40;61.43;102135.41;5056389;28;20194;-57
2022/11/30 01:37:55;;;;;;;34.23;23.23;;;8.50;86.40;;;11.38;61.46;102132.09;5068870;28;20592;-56
2022/11/30 01:40:22;;;;;;;37.23;23.13;;;8.50;86.50;;;11.40;61.59;102130.13;5095917;28;20193;-56
2022/11/30 01:42:49;;;;;;;34.50;23.87;;;8.50;86.50;;;11.39;60.94;102133.72;5096047;28;20258;-57
2022/11/30 01:45:16;;;;;;;37.90;24.10;;;8.50;86.30;;;11.38;60.91;102134.72;5094936;28;20261;-58
2022/11/30 01:47:50;;;;;;;38.53;22.90;;;8.50;86.40;;;11.37;61.33;102130.41;5086745;28;20634;-58
2022/11/30 01:50:24;;;;;;;36.83;23.87;;;8.50;86.40;;;11.37;61.46;102134.84;5075629;28;20664;-56
2022/11/30 01:52:56;;;;;;;39.10;24.17;;;8.50;86.50;;;11.33;61.70;102133.50;5075685;28;20209;-57
2022/11/30 01:55:32;;;;;;;38.57;24.20;;;8.50;86.20;;;11.32;61.56;102131.81;5075715;28;20662;-58
2022/11/30 01:58:06;;;;;;;36.87;24.67;;;8.50;86.40;;;11.32;61.17;102131.81;5075563;28;20208;-56
2022/11/30 02:00:33;;;;;;;40.40;25.80;;;8.50;86.50;;;11.31;61.60;102136.28;5080232;28;20683;-56
2022/11/30 02:03:07;;;;;;;37.40;23.80;;;8.50;86.40;;;11.29;61.63;102132.13;5075103;28;20701;-58
2022/11/30 02:05:38;;;;;;;41.03;24.00;;;8.50;86.50;;;11.32;61.75;102131.81;5075797;28;20197;-57
2022/11/30 02:08:09;;;;;;;39.63;23.30;;;8.50;86.70;;;11.34;61.52;102135.13;5075557;28;20612;-57
2022/11/30 02:10:41;;;;;;;42.67;25.87;;;8.50;86.70;;;11.35;61.08;102136.81;5075705;28;20182;-56
2022/11/30 02:13:43;;;;;;;41.67;25.43;;;8.50;86.60;;;11.28;61.34;102138.38;5076001;28;20224;-56
2022/11/30 02:16:25;;;;;;;43.30;24.60;;;8.50;86.50;;;11.25;61.13;102138.63;5076888;28;20201;-56
2022/11/30 02:19:09;;;;;;;42.70;25.57;;;8.50;86.20;;;11.27;61.78;102147.22;5071247;28;20596;-57
2022/11/30 02:21:49;;;;;;;42.07;25.30;;;8.50;86.80;;;11.29;61.71;102148.75;5054963;28;20698;-55
2022/11/30 02:24:49;;;;;;;41.30;25.03;;;8.40;86.70;;;11.28;61.62;102151.53;5055745;28;20186;-56
2022/11/30 02:27:48;;;;;;;42.77;25.07;;;8.50;86.60;;;11.23;61.53;102145.88;5055103;28;20240;-57
2022/11/30 02:30:20;;;;;;;42.87;26.30;;;8.50;86.30;;;11.23;61.52;102157.25;5055198;28;20176;-56
2022/11/30 02:32:55;;;;;;;45.10;26.53;;;8.40;86.10;;;11.19;61.41;102152.41;5055225;28;20217;-56
2022/11/30 02:35:28;;;;;;;41.53;24.60;;;8.40;86.20;;;11.18;61.26;102158.63;5055328;28;20588;-57
2022/11/30 02:37:59;;;;;;;38.77;24.33;;;8.40;86.50;;;11.17;62.23;102155.16;5068234;28;20561;-57
2022/11/30 02:40:27;;;;;;;41.43;25.23;;;8.30;86.60;;;11.19;61.83;102157.69;5094549;28;20253;-57
2022/11/30 02:42:58;;;;;;;45.83;26.73;;;8.30;86.90;;;11.19;61.31;102155.03;5093970;28;20265;-55
2022/11/30 02:45:34;;;;;;;45.43;25.40;;;8.30;86.80;;;11.18;61.89;102150.72;5095184;28;20205;-57
2022/11/30 02:48:08;;;;;;;41.13;25.30;;;8.30;86.80;;;11.20;61.62;102156.69;5083075;28;20185;-57
2022/11/30 02:50:43;;;;;;;40.30;25.60;;;8.40;87.10;;;11.23;61.99;102153.78;5074124;28;20185;-58
2022/11/30 02:53:10;;;;;;;44.90;26.50;;;8.40;87.20;;;11.24;61.28;102160.72;5074416;28;20258;-56
2022/11/30 02:55:37;;;;;;;41.87;25.77;;;8.30;86.70;;;11.18;61.88;102154.22;5073135;28;20223;-56
2022/11/30 02:58:04;;;;;;;40.27;25.67;;;8.30;86.60;;;11.15;61.86;102161.59;5074188;28;20185;-57
2022/11/30 03:00:33;;;;;;;47.97;27.90;;;8.30;86.60;;;11.09;61.62;102162.13;5073964;28;20239;-61
2022/11/30 03:03:00;;;;;;;42.93;24.67;;;8.30;86.60;;;11.10;61.93;102161.97;5074315;28;20220;-57
2022/11/30 03:05:27;;;;;;;46.80;27.27;;;8.30;86.60;;;11.12;61.60;102161.84;5074254;28;20287;-56
2022/11/30 03:07:54;;;;;;;44.40;26.33;;;8.30;86.80;;;11.09;61.95;102168.25;5074101;28;20662;-56
2022/11/30 03:10:21;;;;;;;43.33;25.33;;;8.30;86.60;;;11.10;61.72;102169.09;5053716;28;20209;-56
2022/11/30 03:12:48;;;;;;;47.87;26.20;;;8.30;87.50;;;11.04;61.51;102162.56;5078145;28;20216;-57
2022/11/30 03:15:16;;;;;;;41.03;25.43;;;8.30;86.50;;;11.05;62.02;102171.31;5094374;28;20188;-55
2022/11/30 03:17:44;;;;;;;48.87;27.60;;;8.30;86.70;;;11.06;62.27;102165.03;5094550;28;20242;-55
2022/11/30 03:20:11;;;;;;;47.63;25.73;;;8.30;86.50;;;11.07;61.75;102172.00;5074948;28;20217;-58
2022/11/30 03:22:38;;;;;;;39.87;25.37;;;8.30;86.70;;;11.12;62.42;102177.66;5054030;28;20214;-57
2022/11/30 03:25:08;;;;;;;48.43;27.70;;;8.30;86.80;;;11.16;61.57;102173.75;5054184;28;20190;-57
2022/11/30 03:27:34;;;;;;;43.60;25.30;;;8.30;86.50;;;11.19;62.03;102174.31;5055688;28;20190;-57
2022/11/30 03:30:02;;;;;;;43.83;25.40;;;8.30;86.80;;;11.22;61.50;102173.22;5052883;28;20186;-54
2022/11/30 03:32:29;;;;;;;45.77;27.60;;;8.30;86.70;;;11.25;61.82;102180.81;5052941;28;20217;-58
2022/11/30 03:34:58;;;;;;;39.47;25.17;;;8.30;86.60;;;11.27;61.39;102177.06;5053660;28;20194;-57
2022/11/30 03:37:25;;;;;;;48.33;27.10;;;8.30;86.50;;;11.29;61.20;102169.03;5059186;28;20235;-58
2022/11/30 03:39:52;;;;;;;47.63;25.50;;;8.30;86.60;;;11.29;61.14;102169.03;5094365;28;20208;-58
2022/11/30 03:42:24;;;;;;;47.73;27.17;;;8.40;86.60;;;11.31;61.48;102167.91;5094805;28;20540;-56
2022/11/30 03:44:51;;;;;;;44.90;27.73;;;8.40;86.70;;;11.32;61.21;102182.72;5095877;28;20199;-58
2022/11/30 03:47:18;;;;;;;49.07;27.07;;;8.40;86.20;;;11.31;61.20;102177.63;5089509;28;20663;-55
2022/11/30 03:49:45;;;;;;;45.00;26.33;;;8.40;86.10;;;11.31;60.93;102182.88;5074129;28;20235;-58
2022/11/30 03:52:13;;;;;;;45.10;27.77;;;8.40;86.20;;;11.32;61.02;102190.63;5073477;28;20810;-57
2022/11/30 03:54:40;;;;;;;51.17;28.53;;;8.40;86.40;;;11.32;60.67;102189.81;5073769;28;20258;-57
2022/11/30 03:57:07;;;;;;;47.20;28.33;;;8.40;86.00;;;11.29;60.79;102192.75;5073765;28;20197;-57
2022/11/30 03:59:34;;;;;;;44.60;25.80;;;8.40;86.00;;;11.28;60.89;102193.72;5074325;28;20678;-56
2022/11/30 04:02:01;;;;;;;46.93;28.07;;;8.40;86.20;;;11.29;60.88;102201.47;5074069;28;20213;-57
2022/11/30 04:04:28;;;;;;;51.00;28.33;;;8.40;86.40;;;11.33;61.23;102196.75;5074742;28;20193;-57
2022/11/30 04:06:55;;;;;;;50.90;29.27;;;8.40;86.20;;;11.32;60.86;102190.63;5075919;28;20193;-56
2022/11/30 04:09:24;;;;;;;47.67;27.30;;;8.40;86.00;;;11.32;60.73;102202.97;5075598;28;20189;-62
2022/11/30 04:11:50;;;;;;;52.27;28.50;;;8.40;85.90;;;11.32;61.25;102203.81;5075670;28;20221;-57
2022/11/30 04:14:17;;;;;;;48.67;28.33;;;8.40;86.20;;;11.34;60.93;102198.41;5075596;28;20197;-57
2022/11/30 04:16:44;;;;;;;48.67;28.00;;;8.40;86.30;;;11.38;61.48;102207.69;5074097;28;20184;-54
2022/11/30 04:19:11;;;;;;;47.70;29.10;;;8.40;86.70;;;11.41;60.96;102213.50;5074160;28;20216;-56
2022/11/30 04:21:38;;;;;;;46.63;27.80;;;8.40;86.50;;;11.43;60.88;102214.19;5074104;28;20204;-58
2022/11/30 04:24:07;;;;;;;50.17;30.70;;;8.40;86.40;;;11.44;61.33;102204.47;5074362;28;20189;-57
2022/11/30 04:26:35;;;;;;;45.63;27.90;;;8.50;86.50;;;11.47;61.04;102212.09;5074420;28;20188;-58
2022/11/30 04:29:04;;;;;;;51.07;28.23;;;8.50;86.70;;;11.50;61.10;102203.91;5073351;28;20189;-58
2022/11/30 04:31:31;;;;;;;49.50;27.87;;;8.50;86.40;;;11.50;61.14;102209.19;5072534;28;20271;-58
2022/11/30 04:33:58;;;;;;;51.77;29.00;;;8.50;86.20;;;11.50;61.17;102201.28;5073890;28;20250;-58
2022/11/30 04:36:25;;;;;;;46.60;27.43;;;8.50;86.20;;;11.50;60.72;102199.44;5073962;28;20181;-57
2022/11/30 04:38:52;;;;;;;44.33;27.07;;;8.60;86.20;;;11.51;60.92;102205.56;5089134;28;20288;-57
2022/11/30 04:41:19;;;;;;;51.40;30.27;;;8.50;85.90;;;11.51;60.76;102200.28;5093303;28;20240;-56
2022/11/30 04:43:47;;;;;;;47.60;27.77;;;8.50;86.00;;;11.50;60.89;102203.91;5096445;28;20193;-56
2022/11/30 04:46:14;;;;;;;47.17;28.83;;;8.50;85.80;;;11.48;60.88;102200.59;5096583;28;20192;-58
2022/11/30 04:48:41;;;;;;;50.73;29.83;;;8.50;86.60;;;11.48;60.72;102201.41;5079848;28;20197;-57
2022/11/30 04:51:09;;;;;;;48.00;28.77;;;8.50;85.90;;;11.45;60.33;102211.44;5076272;28;20246;-54
2022/11/30 04:53:37;;;;;;;45.40;27.40;;;8.60;85.70;;;11.45;60.70;102203.50;5077117;28;20197;-54
2022/11/30 04:56:06;;;;;;;42.13;27.30;;;8.50;85.70;;;11.41;60.11;102210.06;5076553;28;20204;-62
2022/11/30 04:58:34;;;;;;;46.33;27.77;;;8.50;86.10;;;11.37;60.98;102220.03;5076346;28;20251;-56
2022/11/30 05:01:02;;;;;;;43.10;26.87;;;8.50;85.40;;;11.34;60.62;102225.59;5075898;28;20205;-57
2022/11/30 05:03:29;;;;;;;44.77;26.67;;;8.50;85.10;;;11.29;60.30;102221.75;5076764;28;20280;-57
2022/11/30 05:05:56;;;;;;;42.80;25.93;;;8.50;85.00;;;11.23;60.50;102223.13;5076404;28;20314;-56
2022/11/30 05:08:23;;;;;;;42.50;26.27;;;8.40;85.00;;;11.19;60.79;102220.94;5076741;28;20247;-58
2022/11/30 05:10:54;;;;;;;43.83;24.77;;;8.40;85.10;;;11.17;60.96;102226.31;5074890;28;20645;-57
2022/11/30 05:13:24;;;;;;;34.37;22.97;;;8.40;85.30;;;11.19;60.67;102224.41;5076406;28;20288;-59
2022/11/30 05:15:52;;;;;;;38.50;24.43;;;8.40;85.30;;;11.20;61.13;102233.09;5075941;28;20251;-58
2022/11/30 05:18:21;;;;;;;39.50;24.00;;;8.30;85.30;;;11.21;61.07;102227.72;5076306;28;20197;-59
2022/11/30 05:20:49;;;;;;;41.30;26.13;;;8.30;85.40;;;11.21;60.89;102235.63;5075657;28;20217;-58
2022/11/30 05:23:17;;;;;;;35.80;23.43;;;8.30;85.40;;;11.24;60.64;102245.88;5076329;28;20251;-56
2022/11/30 05:25:45;;;;;;;39.00;23.30;;;8.30;85.50;;;11.25;60.25;102236.16;5076068;28;20616;-56
2022/11/30 05:28:12;;;;;;;41.00;24.63;;;8.30;85.20;;;11.21;60.80;102245.31;5076597;28;20196;-57
2022/11/30 05:30:41;;;;;;;37.20;23.77;;;8.30;85.10;;;11.18;60.30;102246.44;5075732;28;20197;-58
2022/11/30 05:33:09;;;;;;;37.50;22.00;;;8.30;85.20;;;11.19;61.03;102247.28;5076005;28;20216;-56
2022/11/30 05:35:37;;;;;;;35.23;22.77;;;8.30;85.30;;;11.21;60.80;102248.81;5076071;28;20274;-58
2022/11/30 05:38:06;;;;;;;36.90;23.77;;;8.30;86.20;;;11.25;60.83;102249.34;5083570;28;20192;-56
2022/11/30 05:40:33;;;;;;;42.80;24.93;;;8.40;85.60;;;11.24;60.16;102250.31;5095425;28;20204;-59
2022/11/30 05:43:03;;;;;;;38.10;22.90;;;8.30;85.20;;;11.24;60.30;102247.69;5096412;28;20258;-57
2022/11/30 05:45:30;;;;;;;38.60;24.90;;;8.40;85.30;;;11.23;60.82;102261.81;5096091;28;20188;-59
2022/11/30 05:47:57;;;;;;;40.30;23.33;;;8.40;85.10;;;11.24;60.27;102253.81;5084900;28;20254;-58
2022/11/30 05:50:24;;;;;;;38.60;23.33;;;8.30;85.40;;;11.23;60.53;102248.66;5075167;28;20201;-57
2022/11/30 05:52:55;;;;;;;38.00;23.37;;;8.30;85.00;;;11.22;60.58;102260.19;5075549;28;20213;-58
2022/11/30 05:55:22;;;;;;;33.03;21.83;;;8.30;85.00;;;11.23;60.48;102259.19;5074761;28;20182;-58
2022/11/30 05:57:49;;;;;;;33.63;22.83;;;8.30;85.20;;;11.21;60.68;102256.72;5076269;28;20245;-58
2022/11/30 06:00:18;;;;;;;38.20;22.97;;;8.30;85.20;;;11.24;60.78;102263.50;5075126;28;20216;-56
2022/11/30 06:02:46;;;;;;;40.70;23.50;;;8.30;85.30;;;11.23;60.40;102264.47;5075610;28;20212;-57
2022/11/30 06:05:13;;;;;;;37.03;23.90;;;8.40;85.10;;;11.20;60.76;102270.84;5075554;28;20221;-56
2022/11/30 06:07:40;;;;;;;38.50;24.17;;;8.30;85.00;;;11.19;60.34;102268.34;5075165;28;20254;-56
2022/11/30 06:10:11;;;;;;;40.17;24.03;;;8.30;85.00;;;11.18;60.65;102266.69;5075465;28;20217;-57
2022/11/30 06:12:38;;;;;;;34.93;22.43;;;8.30;85.10;;;11.19;60.68;102263.09;5075195;28;20572;-58
2022/11/30 06:15:07;;;;;;;37.37;22.73;;;8.30;85.30;;;11.19;60.65;102265.72;5075588;28;20193;-59
2022/11/30 06:17:36;;;;;;;33.43;21.33;;;8.30;85.50;;;11.22;60.50;102276.00;5074627;28;20200;-58
2022/11/30 06:20:05;;;;;;;32.90;21.63;;;8.30;85.50;;;11.22;60.51;102273.34;5075220;28;20568;-57
2022/11/30 06:22:33;;;;;;;37.47;23.03;;;8.30;85.70;;;11.23;60.92;102285.53;5075547;28;20217;-57
2022/11/30 06:24:59;;;;;;;38.63;22.90;;;8.30;85.50;;;11.22;60.72;102276.00;5075081;28;20198;-57
2022/11/30 06:27:31;;;;;;;38.83;23.70;;;8.30;85.20;;;11.12;60.00;102281.28;5075405;28;20197;-63
2022/11/30 06:29:58;;;;;;;35.67;21.50;;;8.30;84.70;;;11.06;60.91;102275.72;5076148;28;20230;-56
2022/11/30 06:32:25;;;;;;;34.73;21.77;;;8.30;84.70;;;11.02;60.69;102280.44;5074610;28;20297;-57
2022/11/30 06:34:52;;;;;;;37.87;23.80;;;8.30;84.90;;;11.05;61.00;102284.59;5074994;28;20194;-58
2022/11/30 06:37:19;;;;;;;39.80;24.17;;;8.20;85.50;;;11.09;61.05;102283.34;5076742;28;20267;-56
2022/11/30 06:39:46;;;;;;;37.37;22.90;;;8.20;85.80;;;11.12;61.03;102289.19;5094779;28;20209;-58
2022/11/30 06:42:36;;;;;;;35.27;21.27;;;8.30;85.70;;;11.14;61.08;102281.13;5094327;28;20252;-57
2022/11/30 06:45:06;;;;;;;37.27;23.23;;;8.30;85.70;;;11.15;60.71;102293.34;5095537;28;20183;-56
2022/11/30 06:47:34;;;;;;;37.10;22.83;;;8.30;85.90;;;11.20;61.06;102296.34;5077786;28;20205;-58
2022/11/30 06:50:03;;;;;;;40.50;22.27;;;8.30;86.80;;;11.20;60.86;102291.94;5074795;28;20186;-58
2022/11/30 06:52:31;;;;;;;39.03;22.57;;;8.30;85.70;;;11.21;60.97;102290.13;5074032;28;20228;-55
2022/11/30 06:54:58;;;;;;;40.57;22.43;;;8.30;85.70;;;11.20;61.20;102299.84;5074143;28;20310;-58
2022/11/30 06:57:26;;;;;;;38.67;23.10;;;8.30;85.60;;;11.18;60.96;102296.50;5073580;28;20250;-63
2022/11/30 06:59:56;;;;;;;35.10;21.57;;;8.30;85.40;;;11.18;61.20;102293.88;5074444;28;20511;-58
2022/11/30 07:02:23;;;;;;;30.77;19.27;;;8.30;85.50;;;11.22;61.40;102291.81;5074312;28;20209;-57
2022/11/30 07:04:50;;;;;;;39.90;22.57;;;8.30;85.80;;;11.27;61.28;102297.47;5074458;28;20200;-60
2022/11/30 07:07:17;;;;;;;37.23;22.00;;;8.40;86.10;;;11.32;61.11;102300.50;5076369;28;20223;-58
2022/11/30 07:09:44;;;;;;;38.50;22.47;;;8.40;86.00;;;11.31;61.14;102307.59;5074620;28;20216;-56
2022/11/30 07:12:11;;;;;;;39.33;22.97;;;8.40;85.70;;;11.29;60.70;102306.09;5073082;28;20281;-57
2022/11/30 07:14:38;;;;;;;39.00;24.30;;;8.40;85.40;;;11.27;60.41;102303.56;5074328;28;20555;-56
2022/11/30 07:17:07;;;;;;;41.10;24.70;;;8.40;85.20;;;11.26;60.91;102301.09;5074431;28;20193;-57
2022/11/30 07:19:34;;;;;;;39.77;24.90;;;8.40;85.30;;;11.23;60.95;102302.19;5074704;28;20213;-57
2022/11/30 07:22:01;;;;;;;43.53;24.33;;;8.40;85.30;;;11.23;60.57;102299.56;5074164;28;20660;-57
2022/11/30 07:27:14;;;;;;;41.07;25.10;;;8.40;85.30;;;11.17;61.29;102317.75;5075601;28;20205;-58
2022/11/30 07:29:42;;;;;;;43.17;25.47;;;8.40;85.30;;;11.15;60.94;102309.16;5075938;28;20185;-57
2022/11/30 07:32:10;;;;;;;44.87;26.30;;;8.40;85.50;;;11.18;61.49;102317.59;5074149;28;20573;-57
2022/11/30 07:34:37;;;;;;;42.13;25.17;;;8.40;85.70;;;11.24;60.77;102318.84;5075107;28;20646;-58
2022/11/30 07:37:04;;;;;;;38.57;24.50;;;8.40;85.80;;;11.25;60.84;102325.75;5075654;28;20200;-58
2022/11/30 07:39:31;;;;;;;41.33;24.40;;;8.40;85.70;;;11.28;61.14;102320.22;5094141;28;20653;-58
2022/11/30 07:41:58;;;;;;;41.80;25.13;;;8.40;86.50;;;11.30;60.64;102323.53;5091930;28;20669;-59
2022/11/30 07:44:25;;;;;;;48.13;27.97;;;8.40;85.60;;;11.30;60.97;102329.66;5074091;28;20193;-57
2022/11/30 07:46:52;;;;;;;42.70;25.73;;;8.40;85.60;;;11.32;61.04;102332.13;5074558;28;20201;-57
2022/11/30 07:49:20;;;;;;;45.03;26.33;;;8.40;85.80;;;11.33;60.40;102339.09;5074273;28;20200;-57
2022/11/30 07:51:48;;;;;;;49.93;27.87;;;8.40;85.50;;;11.27;60.25;102334.34;5073982;28;20231;-56
2022/11/30 07:54:15;;;;;;;47.73;28.20;;;8.40;85.00;;;11.29;61.30;102335.06;5074178;28;20600;-57
2022/11/30 07:56:42;;;;;;;52.03;29.07;;;8.50;85.70;;;11.26;60.45;102337.97;5073295;28;20189;-57
2022/11/30 07:59:09;;;;;;;53.73;27.60;;;8.40;85.10;;;11.26;60.54;102338.81;5073368;28;20189;-57
2022/11/30 08:01:36;;;;;;;47.73;26.43;;;8.40;85.10;;;11.30;61.06;102339.34;5074070;28;20221;-57
2022/11/30 08:04:04;;;;;;;49.47;27.10;;;8.40;85.70;;;11.34;60.59;102351.28;5074890;28;20669;-59
2022/11/30 08:06:32;;;;;;;52.37;28.27;;;8.50;85.50;;;11.36;60.85;102344.09;5077467;28;20261;-59
2022/11/30 08:09:03;;;;;;;56.57;28.87;;;8.50;85.50;;;11.35;60.46;102353.78;5075435;28;20235;-58
2022/11/30 08:11:34;;;;;;;50.83;27.00;;;8.50;85.40;;;11.35;60.57;102356.44;5075658;28;20212;-58
2022/11/30 08:14:02;;;;;;;51.73;29.67;;;8.50;85.40;;;11.36;60.97;102352.00;5095919;28;20192;-59
2022/11/30 08:16:34;;;;;;;63.67;31.77;;;8.50;85.50;;;11.33;60.68;102355.75;5095137;28;20204;-57
2022/11/30 08:19:02;;;;;;;55.83;32.03;;;8.50;85.20;;;11.32;60.58;102353.22;5094077;28;20272;-55
2022/11/30 08:21:32;;;;;;;55.20;29.60;;;8.50;85.50;;;11.30;60.56;102365.72;5077215;28;20433;-57
2022/11/30 08:24:01;;;;;;;58.43;31.10;;;8.50;85.40;;;11.32;60.71;102358.50;5077564;28;20197;-58
2022/11/30 08:26:32;;;;;;;57.47;30.10;;;8.50;85.60;;;11.36;60.93;102355.44;5077742;28;20185;-57
2022/11/30 08:29:00;;;;;;;62.73;33.77;;;8.50;86.10;;;11.42;60.60;102367.25;5073332;28;20268;-55
2022/11/30 08:31:30;;;;;;;67.23;34.67;;;8.50;86.10;;;11.43;60.71;102366.28;5076362;28;20735;-56
2022/11/30 08:34:01;;;;;;;60.67;32.87;;;8.50;85.80;;;11.39;60.62;102370.16;5075455;28;20204;-56
2022/11/30 08:36:29;;;;;;;62.57;34.60;;;8.50;85.70;;;11.44;61.30;102370.56;5058494;28;20200;-59
2022/11/30 08:38:58;;;;;;;56.93;32.17;;;8.60;86.20;;;11.48;61.03;102370.16;5080426;28;20254;-58
2022/11/30 08:41:27;;;;;;;63.10;33.27;;;8.60;86.20;;;11.47;60.62;102372.94;5076260;28;20270;-59
2022/11/30 08:43:54;;;;;;;65.77;33.63;;;8.60;85.30;;;11.40;59.98;102379.75;5077242;28;20208;-61
2022/11/30 08:46:23;;;;;;;63.57;32.90;;;8.60;84.90;;;11.37;60.68;102374.72;5071708;28;20684;-56
2022/11/30 08:49:10;;;;;;;62.57;33.33;;;8.60;85.10;;;11.31;60.82;102384.06;5078221;28;20212;-59
2022/11/30 08:51:55;;;;;;;63.47;32.87;;;8.60;85.00;;;11.32;60.45;102384.84;5072904;28;20213;-58
2022/11/30 08:54:45;;;;;;;56.03;32.57;;;8.50;85.30;;;11.33;60.93;102382.09;5080618;28;20268;-58
2022/11/30 08:57:34;;;;;;;66.97;35.20;;;8.50;85.60;;;11.37;60.75;102378.22;5058996;28;20174;-57
2022/11/30 09:00:02;;;;;;;61.17;32.93;;;8.50;85.90;;;11.39;61.09;102381.53;5058484;28;20213;-57
2022/11/30 09:02:29;;;;;;;59.77;32.40;;;8.60;85.80;;;11.45;60.85;102388.06;5057903;28;20218;-55
2022/11/30 09:04:56;;;;;;;61.90;32.70;;;8.60;85.80;;;11.48;60.74;102383.31;5074407;28;20197;-58
2022/11/30 09:07:23;;;;;;;54.93;31.00;;;8.60;85.90;;;11.55;60.82;102394.97;5077821;28;20270;-58
2022/11/30 09:09:50;;;;;;;62.50;33.50;;;8.60;86.20;;;11.59;60.36;102392.91;5061158;28;20209;-59
2022/11/30 09:12:17;;;;;;;59.33;34.00;;;8.70;85.60;;;11.58;60.28;102391.22;5068803;28;20714;-56
2022/11/30 09:14:47;;;;;;;58.90;33.33;;;8.70;85.00;;;11.57;60.03;102397.50;5059700;28;20201;-57
2022/11/30 09:17:23;;;;;;;54.07;29.57;;;8.70;84.90;;;11.57;60.13;102408.03;5061305;28;20270;-57
2022/11/30 09:19:50;;;;;;;59.50;33.70;;;8.70;84.90;;;11.56;59.95;102404.56;5058187;28;20294;-58
2022/11/30 09:22:17;;;;;;;57.37;31.77;;;8.70;85.00;;;11.58;60.15;102407.06;5055973;28;20209;-59
2022/11/30 09:24:44;;;;;;;55.93;30.93;;;8.70;85.10;;;11.61;60.25;102414.69;5057353;28;20197;-56
2022/11/30 09:27:12;;;;;;;56.10;30.30;;;8.70;85.00;;;11.64;60.62;102408.31;5061287;28;20709;-58
2022/11/30 09:29:39;;;;;;;61.30;33.13;;;8.70;85.20;;;11.68;60.18;102413.19;5061340;28;20206;-56
2022/11/30 09:32:07;;;;;;;55.43;30.90;;;8.70;85.30;;;11.71;60.33;102417.34;5059621;28;20600;-57
2022/11/30 09:34:34;;;;;;;52.80;30.00;;;8.70;85.00;;;11.67;59.85;102410.69;5058640;28;20235;-58
2022/11/30 09:37:02;;;;;;;49.73;30.70;;;8.70;84.40;;;11.66;60.33;102414.28;5062730;28;20201;-58
2022/11/30 09:39:29;;;;;;;62.23;30.83;;;8.70;84.70;;;11.67;60.29;102406.22;5077619;28;20607;-59
2022/11/30 09:42:24;;;;;;;50.53;30.20;;;8.80;85.00;;;11.64;60.32;102414.44;5066007;28;20237;-57
2022/11/30 09:45:05;;;;;;;53.00;30.70;;;8.80;84.10;;;11.67;59.82;102415.94;5057616;28;20202;-57
2022/11/30 09:48:24;;;;;;;55.73;32.17;;;8.70;84.70;;;11.66;60.01;102409.84;5065408;28;20575;-57
2022/11/30 09:50:53;;;;;;;53.50;30.13;;;8.80;85.20;;;11.68;60.29;102415.84;5039426;28;20253;-57
2022/11/30 09:53:34;;;;;;;48.33;29.90;;;8.80;84.80;;;11.71;60.00;102412.91;5073495;28;20545;-58
2022/11/30 09:56:22;;;;;;;68.97;44.67;;;8.80;84.80;;;11.75;60.07;102413.47;5063351;28;20620;-58
2022/11/30 09:58:58;;;;;;;66.97;37.00;;;8.80;84.80;;;11.81;59.93;102413.75;5075220;28;20677;-59
2022/11/30 10:01:25;;;;;;;53.07;31.30;;;8.80;85.10;;;11.88;60.22;102409.56;5056939;28;20246;-65
2022/11/30 10:04:00;;;;;;;50.43;29.30;;;8.90;85.30;;;11.92;59.39;102421.50;5061178;28;20190;-58
2022/11/30 10:06:45;;;;;;;55.40;30.43;;;8.90;84.90;;;11.95;59.90;102410.66;5069236;28;20258;-57
2022/11/30 10:09:40;;;;;;;49.87;29.10;;;9.00;85.20;;;11.99;59.40;102412.03;5075372;28;20235;-60
2022/11/30 10:12:17;;;;;;;49.17;28.23;;;9.00;84.80;;;12.02;59.47;102406.47;5079832;28;20216;-59
2022/11/30 10:15:13;;;;;;;50.00;29.63;;;9.00;84.50;;;12.00;59.08;102413.72;5066909;28;20243;-59
2022/11/30 10:17:55;;;;;;;44.23;26.77;;;9.10;84.20;;;11.97;59.00;102408.72;5066627;28;20211;-59
2022/11/30 10:20:50;;;;;;;47.77;27.37;;;9.10;83.90;;;11.93;59.17;102407.31;5060543;28;20185;-56